Time;durP1;ratioP1;P1;durP2;ratioP2;P2;SDS_P1;SDS_P2;PMS_P1;PMS_P2;Temp;Humidity;BMP_temperature;BMP_pressure;BME280_temperature;BME280_humidity;BME280_pressure;Samples;Min_cycle;Max_cycle;Signal;HPM_P1;HPM_P2
2024/02/22 00:00:18;;;;;;;5.15;3.10;;;;;;;8.14;78.48;99483.81;2522648;28;20345;-78
2024/02/22 00:01:31;;;;;;;6.25;2.88;;;;;;;8.11;78.87;99484.72;2523870;28;20042;-78
2024/02/22 00:02:45;;;;;;;5.63;2.53;;;;;;;8.09;79.08;99487.31;2521968;28;20049;-78
2024/02/22 00:03:59;;;;;;;5.60;2.95;;;;;;;8.08;78.97;99476.97;2521466;28;20104;-78
2024/02/22 00:05:14;;;;;;;4.47;3.45;;;;;;;8.07;79.11;99475.25;2521085;28;20230;-78
2024/02/22 00:06:27;;;;;;;3.65;2.75;;;;;;;8.06;79.16;99479.59;2530197;28;20465;-78
2024/02/22 00:07:42;;;;;;;5.45;3.10;;;;;;;8.05;79.29;99480.47;2521664;28;20061;-78
2024/02/22 00:08:56;;;;;;;6.10;2.80;;;;;;;8.04;79.21;99475.31;2522563;28;20049;-78
2024/02/22 00:10:13;;;;;;;6.15;3.63;;;;;;;8.03;79.64;99465.81;2528580;28;20060;-79
2024/02/22 00:11:27;;;;;;;3.75;2.78;;;;;;;8.01;79.61;99473.59;2532554;28;20050;-78
2024/02/22 00:12:41;;;;;;;12.43;4.43;;;;;;;8.02;79.65;99464.06;2530838;28;20097;-78
2024/02/22 00:13:55;;;;;;;4.80;3.08;;;;;;;8.01;79.98;99462.38;2523498;28;20148;-79
2024/02/22 00:15:10;;;;;;;4.80;3.00;;;;;;;8.02;79.88;99464.06;2524781;28;20046;-78
2024/02/22 00:16:24;;;;;;;3.92;3.15;;;;;;;8.01;80.18;99464.97;2524206;28;20050;-78
2024/02/22 00:17:38;;;;;;;4.93;2.80;;;;;;;8.03;80.09;99468.41;2524895;28;20463;-78
2024/02/22 00:18:52;;;;;;;5.50;3.65;;;;;;;8.03;80.25;99471.00;2525591;28;20042;-78
2024/02/22 00:20:07;;;;;;;5.40;2.83;;;;;;;8.03;80.30;99461.47;2525031;28;20655;-79
2024/02/22 00:21:21;;;;;;;3.95;2.30;;;;;;;8.05;80.28;99464.00;2526798;28;20098;-79
2024/02/22 00:22:35;;;;;;;7.20;3.85;;;;;;;8.06;80.16;99463.16;2534225;28;20033;-78
2024/02/22 00:23:49;;;;;;;3.92;3.53;;;;;;;8.06;80.36;99457.94;2525714;28;20046;-78
2024/02/22 00:25:06;;;;;;;5.40;2.83;;;;;;;8.07;80.33;99459.66;2522934;28;20121;-77
2024/02/22 00:26:21;;;;;;;3.85;2.33;;;;;;;8.06;80.59;99451.00;2523045;28;20052;-78
2024/02/22 00:27:36;;;;;;;2.85;2.40;;;;;;;8.07;80.68;99457.06;2524010;28;20044;-78
2024/02/22 00:28:50;;;;;;;4.53;2.90;;;;;;;8.06;80.42;99453.59;2532989;28;20053;-78
2024/02/22 00:30:05;;;;;;;2.15;1.90;;;;;;;8.07;80.63;99452.69;2529351;28;20145;-78
2024/02/22 00:31:19;;;;;;;6.40;3.97;;;;;;;8.07;80.76;99446.66;2523856;28;20052;-78
2024/02/22 00:32:33;;;;;;;5.97;3.03;;;;;;;8.06;80.79;99443.22;2523335;28;20042;-78
2024/02/22 00:33:47;;;;;;;2.78;2.50;;;;;;;8.06;80.48;99439.75;2530791;28;20095;-79
2024/02/22 00:35:01;;;;;;;5.60;3.08;;;;;;;8.04;80.99;99434.56;2524236;28;20046;-78
2024/02/22 00:36:15;;;;;;;2.72;2.15;;;;;;;8.04;81.09;99437.16;2523679;28;20053;-78
2024/02/22 00:37:29;;;;;;;4.90;3.38;;;;;;;8.03;80.94;99426.81;2531577;28;20048;-78
2024/02/22 00:38:43;;;;;;;6.72;3.42;;;;;;;8.02;81.10;99428.53;2525994;28;20591;-78
2024/02/22 00:39:57;;;;;;;5.97;2.78;;;;;;;8.02;81.22;99418.16;2530106;28;20068;-78
2024/02/22 00:41:12;;;;;;;3.10;2.80;;;;;;;8.02;81.06;99425.09;2523859;28;20053;-78
2024/02/22 00:42:27;;;;;;;3.38;2.63;;;;;;;8.01;81.53;99416.44;2524218;28;20111;-78
2024/02/22 00:43:40;;;;;;;5.55;2.90;;;;;;;8.02;81.45;99423.34;2524022;28;20050;-78
2024/02/22 00:44:55;;;;;;;4.43;2.70;;;;;;;8.02;81.39;99412.09;2525338;28;20543;-79
2024/02/22 00:46:09;;;;;;;3.40;2.63;;;;;;;8.01;81.33;99410.41;2525182;28;20046;-79
2024/02/22 00:47:23;;;;;;;3.15;2.35;;;;;;;8.01;81.74;99405.22;2525194;28;20053;-79
2024/02/22 00:48:37;;;;;;;3.83;2.50;;;;;;;8.01;81.73;99405.22;2525024;28;20042;-79
2024/02/22 00:49:52;;;;;;;4.43;2.30;;;;;;;8.02;82.07;99396.50;2528524;28;20124;-79
2024/02/22 00:51:05;;;;;;;3.42;3.10;;;;;;;8.04;82.05;99407.75;2535166;28;20502;-79
2024/02/22 00:52:20;;;;;;;3.42;2.63;;;;;;;8.04;82.28;99395.59;2535451;28;20095;-79
2024/02/22 00:53:33;;;;;;;4.97;3.50;;;;;;;8.05;82.25;99392.13;2526611;28;20046;-79
2024/02/22 00:54:48;;;;;;;3.38;2.42;;;;;;;8.04;82.04;99384.34;2525984;28;20124;-79
2024/02/22 00:56:01;;;;;;;5.50;3.28;;;;;;;8.05;82.61;99386.06;2524294;28;20046;-78
2024/02/22 00:57:17;;;;;;;3.55;2.60;;;;;;;8.06;82.59;99383.44;2525877;28;20120;-79
2024/02/22 00:58:30;;;;;;;4.72;2.40;;;;;;;8.09;82.55;99387.72;2524894;28;20521;-79
2024/02/22 00:59:45;;;;;;;3.25;2.53;;;;;;;8.09;82.61;99385.97;2527986;28;20124;-79
2024/02/22 01:00:58;;;;;;;3.28;2.65;;;;;;;8.08;82.37;99380.84;2524856;28;20053;-78
2024/02/22 01:02:13;;;;;;;3.03;2.72;;;;;;;8.09;82.65;99380.78;2523713;28;20050;-79
2024/02/22 01:03:28;;;;;;;3.58;3.10;;;;;;;8.08;82.52;99378.22;2524251;28;20499;-78
2024/02/22 01:04:43;;;;;;;3.42;2.80;;;;;;;8.09;82.83;99373.00;2532737;28;20403;-78
2024/02/22 01:05:57;;;;;;;4.80;2.47;;;;;;;8.07;82.97;99369.56;2527903;28;20069;-79
2024/02/22 01:07:11;;;;;;;2.90;2.38;;;;;;;8.08;83.02;99365.25;2527239;28;20053;-78
2024/02/22 01:08:25;;;;;;;2.80;2.10;;;;;;;8.07;82.92;99366.97;2522656;28;20266;-78
2024/02/22 01:09:39;;;;;;;3.17;2.55;;;;;;;8.08;83.05;99370.44;2523506;28;20110;-79
2024/02/22 01:10:52;;;;;;;4.50;2.63;;;;;;;8.08;83.24;99362.63;2527176;28;20037;-79
2024/02/22 01:12:07;;;;;;;3.90;2.78;;;;;;;8.07;83.27;99353.13;2529105;28;20579;-82
2024/02/22 01:13:22;;;;;;;4.90;2.63;;;;;;;8.07;83.21;99356.56;2524279;28;20601;-79
2024/02/22 01:14:37;;;;;;;4.47;3.30;;;;;;;8.07;83.24;99353.13;2529759;28;20049;-79
2024/02/22 01:15:50;;;;;;;6.35;3.35;;;;;;;8.06;83.27;99351.41;2523782;28;20053;-78
2024/02/22 01:17:05;;;;;;;5.78;2.53;;;;;;;8.05;83.24;99345.38;2525639;28;20052;-79
2024/02/22 01:18:18;;;;;;;4.22;3.83;;;;;;;8.06;83.61;99346.22;2532768;28;20049;-79
2024/02/22 01:19:33;;;;;;;4.78;3.40;;;;;;;8.06;83.25;99338.41;2528127;28;20101;-79
2024/02/22 01:20:46;;;;;;;2.92;2.63;;;;;;;8.05;83.47;99334.97;2532215;28;20053;-79
2024/02/22 01:22:02;;;;;;;5.03;2.92;;;;;;;8.05;83.61;99339.28;2526172;28;20064;-79
2024/02/22 01:23:15;;;;;;;3.90;3.58;;;;;;;8.04;83.49;99340.19;2526413;28;20073;-79
2024/02/22 01:24:30;;;;;;;3.22;2.40;;;;;;;8.03;83.72;99341.94;2525964;28;20049;-78
2024/02/22 01:25:43;;;;;;;3.83;2.72;;;;;;;8.04;83.68;99327.19;2517390;28;20046;-80
2024/02/22 01:26:58;;;;;;;3.38;2.72;;;;;;;8.04;83.62;99337.59;2530671;28;20578;-79
2024/02/22 01:28:12;;;;;;;3.88;2.88;;;;;;;8.02;83.66;99323.75;2537096;28;20719;-79
2024/02/22 01:29:28;;;;;;;4.25;3.50;;;;;;;8.02;83.98;99323.75;2529631;28;20046;-79
2024/02/22 01:30:42;;;;;;;4.72;2.92;;;;;;;8.03;83.82;99312.50;2539987;28;20029;-79
2024/02/22 01:31:56;;;;;;;2.97;2.65;;;;;;;8.02;84.03;99313.38;2534949;28;20072;-79
2024/02/22 01:33:10;;;;;;;3.28;2.60;;;;;;;8.02;84.00;99310.78;2530182;28;20118;-79
2024/02/22 01:34:24;;;;;;;5.30;3.47;;;;;;;8.03;84.03;99310.75;2533403;28;20729;-79
2024/02/22 01:35:38;;;;;;;3.33;3.03;;;;;;;8.02;84.16;99303.81;2535026;28;20469;-79
2024/02/22 01:36:52;;;;;;;3.92;2.78;;;;;;;8.02;84.12;99298.63;2532467;28;20080;-79
2024/02/22 01:38:06;;;;;;;3.25;2.63;;;;;;;8.04;83.92;99293.41;2525013;28;20157;-79
2024/02/22 01:39:20;;;;;;;3.30;2.70;;;;;;;8.04;84.02;99285.63;2524291;28;20160;-79
2024/02/22 01:40:34;;;;;;;4.85;2.78;;;;;;;8.03;84.22;99291.72;2523826;28;20038;-79
2024/02/22 01:41:48;;;;;;;3.08;2.72;;;;;;;8.04;84.17;99283.03;2524745;28;20046;-79
2024/02/22 01:43:02;;;;;;;8.23;2.88;;;;;;;8.03;84.14;99284.78;2528956;28;20053;-79
2024/02/22 01:44:16;;;;;;;2.92;2.58;;;;;;;8.04;84.39;99277.81;2527861;28;20038;-79
2024/02/22 01:45:31;;;;;;;5.47;3.15;;;;;;;8.04;84.15;99280.44;2524188;28;20049;-79
2024/02/22 01:46:46;;;;;;;3.83;2.75;;;;;;;8.05;84.49;99276.94;2536789;28;20041;-78
2024/02/22 01:47:59;;;;;;;3.50;2.47;;;;;;;8.05;84.29;99272.63;2538614;28;20038;-79
2024/02/22 01:49:14;;;;;;;2.70;2.25;;;;;;;8.06;84.51;99273.47;2533021;28;20121;-79
2024/02/22 01:50:27;;;;;;;4.38;2.35;;;;;;;8.06;84.29;99279.50;2529146;28;20061;-79
2024/02/22 01:51:42;;;;;;;3.90;2.40;;;;;;;8.07;84.58;99281.22;2528103;28;20109;-79
2024/02/22 01:52:55;;;;;;;3.08;2.28;;;;;;;8.07;84.66;99267.38;2528035;28;20049;-79
2024/02/22 01:54:11;;;;;;;3.35;2.70;;;;;;;8.08;84.43;99269.09;2527995;28;20113;-79
2024/02/22 01:55:26;;;;;;;4.65;1.80;;;;;;;8.09;84.52;99265.59;2527770;28;20103;-80
2024/02/22 01:56:40;;;;;;;3.95;2.63;;;;;;;8.09;84.50;99269.03;2528590;28;20042;-79
2024/02/22 01:57:54;;;;;;;3.22;2.10;;;;;;;8.11;84.58;99261.22;2538272;28;20049;-79
2024/02/22 01:59:09;;;;;;;3.13;2.85;;;;;;;8.12;84.68;99264.69;2538929;28;20448;-79
2024/02/22 02:00:23;;;;;;;3.30;2.38;;;;;;;8.13;84.67;99261.19;2531897;28;20136;-79
2024/02/22 02:01:39;;;;;;;2.17;1.98;;;;;;;8.13;84.87;99259.47;2529731;28;20041;-79
2024/02/22 02:02:53;;;;;;;3.20;2.28;;;;;;;8.14;84.81;99255.97;2539174;28;20054;-79
2024/02/22 02:04:09;;;;;;;3.80;2.03;;;;;;;8.14;84.73;99250.78;2537414;28;20525;-79
2024/02/22 02:05:23;;;;;;;5.72;4.45;;;;;;;8.16;84.66;99245.53;2534699;28;20050;-79
2024/02/22 02:06:37;;;;;;;2.65;2.03;;;;;;;8.17;84.76;99249.84;2526662;28;20128;-79
2024/02/22 02:07:51;;;;;;;2.65;1.70;;;;;;;8.17;84.72;99250.69;2528826;28;20056;-79
2024/02/22 02:09:06;;;;;;;3.72;3.30;;;;;;;8.17;84.57;99250.69;2533078;28;20132;-79
2024/02/22 02:10:20;;;;;;;4.45;2.78;;;;;;;8.17;84.73;99237.69;2527152;28;20046;-79
2024/02/22 02:11:34;;;;;;;2.97;2.60;;;;;;;8.17;84.87;99235.09;2535121;28;20088;-78
2024/02/22 02:12:47;;;;;;;4.30;2.03;;;;;;;8.20;84.77;99242.81;2527911;28;20057;-80
2024/02/22 02:14:02;;;;;;;3.42;1.90;;;;;;;8.20;84.70;99235.03;2531879;28;20110;-80
2024/02/22 02:15:15;;;;;;;4.43;2.08;;;;;;;8.23;84.79;99234.09;2532145;28;20104;-79
2024/02/22 02:16:30;;;;;;;2.58;2.03;;;;;;;8.23;84.76;99231.50;2528210;28;20069;-79
2024/02/22 02:17:44;;;;;;;2.72;1.83;;;;;;;8.24;84.78;99228.03;2533755;28;20054;-79
2024/02/22 02:18:59;;;;;;;4.35;1.77;;;;;;;8.25;84.84;99221.94;2525458;28;20133;-79
2024/02/22 02:20:14;;;;;;;2.67;2.00;;;;;;;8.26;85.07;99223.63;2525817;28;20381;-79
2024/02/22 02:21:31;;;;;;;2.33;1.58;;;;;;;8.25;85.01;99215.00;2533521;28;20045;-78
2024/02/22 02:22:55;;;;;;;2.33;1.95;;;;;;;8.27;85.01;99220.16;2527860;28;20053;-80
2024/02/22 02:24:14;;;;;;;2.45;1.98;;;;;;;8.26;85.08;99219.31;2530697;28;20141;-79
2024/02/22 02:25:30;;;;;;;1.90;1.70;;;;;;;8.29;84.89;99218.41;2533101;28;20105;-79
2024/02/22 02:26:51;;;;;;;3.65;2.13;;;;;;;8.28;84.89;99217.53;2525766;28;20363;-78
2024/02/22 02:28:04;;;;;;;3.03;1.80;;;;;;;8.29;85.15;99219.25;2527041;28;20121;-79
2024/02/22 02:29:19;;;;;;;1.65;1.55;;;;;;;8.29;85.08;99208.00;2533728;28;20052;-78
2024/02/22 02:30:32;;;;;;;2.58;1.65;;;;;;;8.30;85.18;99214.91;2533775;28;20046;-79
2024/02/22 02:31:48;;;;;;;2.17;1.58;;;;;;;8.32;85.28;99205.31;2523733;28;20050;-80
2024/02/22 02:33:02;;;;;;;2.15;1.65;;;;;;;8.32;85.03;99214.88;2523680;28;20096;-79
2024/02/22 02:34:17;;;;;;;2.35;2.15;;;;;;;8.33;85.15;99206.19;2524161;28;20050;-79
2024/02/22 02:35:30;;;;;;;2.70;1.80;;;;;;;8.34;85.10;99197.47;2524634;28;20071;-80
2024/02/22 02:36:44;;;;;;;1.90;1.73;;;;;;;8.34;85.24;99185.34;2524745;28;20375;-79
2024/02/22 02:37:58;;;;;;;1.83;1.45;;;;;;;8.35;85.16;99186.22;2524565;28;20042;-79
2024/02/22 02:39:12;;;;;;;3.47;2.50;;;;;;;8.34;85.38;99187.09;2531391;28;20065;-80
2024/02/22 02:40:26;;;;;;;2.55;2.25;;;;;;;8.33;85.25;99183.63;2531285;28;20037;-79
2024/02/22 02:41:42;;;;;;;1.60;1.35;;;;;;;8.33;85.02;99191.44;2523692;28;20443;-79
2024/02/22 02:42:55;;;;;;;3.08;2.00;;;;;;;8.34;85.26;99180.16;2523350;28;20053;-79
2024/02/22 02:44:09;;;;;;;2.30;2.10;;;;;;;8.33;85.26;99177.59;2522843;28;20574;-79
2024/02/22 02:45:23;;;;;;;4.68;1.60;;;;;;;8.34;85.30;99168.88;2523369;28;20046;-80
2024/02/22 02:46:39;;;;;;;5.35;2.50;;;;;;;8.35;85.40;99175.81;2523643;28;20136;-79
2024/02/22 02:47:52;;;;;;;3.97;1.95;;;;;;;8.34;85.40;99171.47;2523211;28;20042;-79
2024/02/22 02:49:07;;;;;;;4.88;2.30;;;;;;;8.33;85.29;99162.84;2522914;28;20124;-79
2024/02/22 02:50:20;;;;;;;3.42;1.65;;;;;;;8.34;85.39;99171.47;2529980;28;20042;-79
2024/02/22 02:51:35;;;;;;;2.05;1.48;;;;;;;8.34;85.37;99167.16;2532838;28;20407;-79
2024/02/22 02:52:48;;;;;;;2.38;1.50;;;;;;;8.34;85.40;99161.97;2532514;28;20053;-79
2024/02/22 02:54:03;;;;;;;1.73;1.52;;;;;;;8.34;85.45;99158.50;2529144;28;20075;-80
2024/02/22 02:55:18;;;;;;;2.60;1.75;;;;;;;8.34;85.50;99161.09;2522450;28;20448;-79
2024/02/22 02:56:32;;;;;;;3.30;1.77;;;;;;;8.35;85.56;99160.22;2529860;28;20053;-79
2024/02/22 02:57:49;;;;;;;1.33;1.23;;;;;;;8.35;85.35;99152.41;2524501;28;20053;-79
2024/02/22 02:59:04;;;;;;;2.80;2.38;;;;;;;8.34;85.48;99146.38;2529240;28;20112;-79
2024/02/22 03:00:18;;;;;;;2.05;1.65;;;;;;;8.34;85.45;99154.16;2528182;28;20052;-79
2024/02/22 03:01:33;;;;;;;1.35;1.23;;;;;;;8.35;85.37;99152.41;2525307;28;20049;-79
2024/02/22 03:02:46;;;;;;;2.45;1.65;;;;;;;8.33;85.35;99147.25;2530474;28;20550;-80
2024/02/22 03:04:01;;;;;;;1.02;0.90;;;;;;;8.33;85.53;99141.19;2525454;28;20045;-79
2024/02/22 03:05:14;;;;;;;1.45;1.30;;;;;;;8.34;85.30;99142.88;2519816;28;20062;-79
2024/02/22 03:06:29;;;;;;;2.88;1.77;;;;;;;8.34;85.46;99148.09;2522561;28;20137;-79
2024/02/22 03:07:42;;;;;;;1.35;1.17;;;;;;;8.33;85.58;99136.84;2522188;28;20061;-79
2024/02/22 03:08:57;;;;;;;3.72;1.50;;;;;;;8.32;85.59;99140.34;2522397;28;20049;-80
2024/02/22 03:10:11;;;;;;;1.67;1.45;;;;;;;8.29;85.51;99136.06;2523083;28;20049;-79
2024/02/22 03:11:25;;;;;;;1.67;1.40;;;;;;;8.29;85.44;99133.47;2529393;28;20156;-80
2024/02/22 03:12:39;;;;;;;1.77;1.42;;;;;;;8.30;85.58;99132.56;2523552;28;20042;-80
2024/02/22 03:13:55;;;;;;;2.30;1.35;;;;;;;8.32;85.52;99123.91;2525217;28;20128;-79
2024/02/22 03:15:08;;;;;;;1.60;1.17;;;;;;;8.30;85.45;99124.78;2528054;28;20432;-79
2024/02/22 03:16:24;;;;;;;1.88;1.42;;;;;;;8.34;85.52;99129.91;2522636;28;20052;-80
2024/02/22 03:17:37;;;;;;;3.85;1.20;;;;;;;8.34;85.72;99122.09;2531291;28;20056;-79
2024/02/22 03:18:52;;;;;;;4.00;1.60;;;;;;;8.33;85.39;99116.06;2524910;28;20113;-79
2024/02/22 03:20:10;;;;;;;2.92;1.50;;;;;;;8.33;85.55;99118.66;2528349;28;20140;-79
2024/02/22 03:21:25;;;;;;;1.23;1.13;;;;;;;8.33;85.53;99116.06;2523470;28;20095;-79
2024/02/22 03:22:39;;;;;;;2.33;1.30;;;;;;;8.33;85.75;99112.59;2523796;28;20563;-79
2024/02/22 03:23:54;;;;;;;1.48;1.30;;;;;;;8.32;85.63;99111.75;2522804;28;20108;-80
2024/02/22 03:25:09;;;;;;;3.13;1.27;;;;;;;8.31;85.65;99107.44;2522794;28;20400;-79
2024/02/22 03:26:23;;;;;;;3.10;1.73;;;;;;;8.32;85.73;99105.72;2523323;28;20046;-79
2024/02/22 03:27:38;;;;;;;2.10;1.40;;;;;;;8.32;85.63;99108.31;2523047;28;20081;-81
2024/02/22 03:28:52;;;;;;;1.60;1.25;;;;;;;8.32;85.58;99100.50;2524046;28;20471;-80
2024/02/22 03:30:09;;;;;;;3.20;1.40;;;;;;;8.32;85.96;99092.72;2528030;28;20367;-79
2024/02/22 03:31:23;;;;;;;1.20;1.10;;;;;;;8.31;85.75;99086.63;2527936;28;20053;-80
2024/02/22 03:32:36;;;;;;;1.10;1.05;;;;;;;8.33;85.65;99090.06;2524015;28;20049;-79
2024/02/22 03:33:51;;;;;;;1.50;1.35;;;;;;;8.33;85.69;99095.25;2524203;28;20064;-79
2024/02/22 03:35:05;;;;;;;1.85;1.70;;;;;;;8.32;85.81;99085.75;2524778;28;20050;-79
2024/02/22 03:36:20;;;;;;;1.83;1.63;;;;;;;8.34;85.71;99083.09;2530319;28;20069;-79
2024/02/22 03:37:33;;;;;;;2.10;1.58;;;;;;;8.34;85.66;99086.59;2531855;28;20042;-79
2024/02/22 03:38:48;;;;;;;1.15;1.05;;;;;;;8.35;85.65;99092.63;2525230;28;20081;-81
2024/02/22 03:40:02;;;;;;;3.80;1.00;;;;;;;8.35;85.61;99075.28;2524150;28;20096;-79
2024/02/22 03:41:23;;;;;;;1.65;1.45;;;;;;;8.36;85.85;99081.34;2529917;28;20041;-79
2024/02/22 03:42:38;;;;;;;1.35;1.02;;;;;;;8.35;85.84;99066.63;2526732;28;20080;-80
2024/02/22 03:43:53;;;;;;;1.50;0.98;;;;;;;8.34;85.97;99081.38;2524559;28;20064;-79
2024/02/22 03:45:08;;;;;;;5.13;1.23;;;;;;;8.36;85.95;99076.97;2529120;28;20045;-79
2024/02/22 03:46:22;;;;;;;1.60;1.17;;;;;;;8.36;85.94;99079.56;2529798;28;20042;-79
2024/02/22 03:47:36;;;;;;;3.47;1.40;;;;;;;8.38;85.73;99076.94;2538208;28;20042;-80
2024/02/22 03:48:50;;;;;;;2.10;1.73;;;;;;;8.39;85.78;99078.66;2532334;28;20382;-79
2024/02/22 03:50:05;;;;;;;1.88;1.23;;;;;;;8.38;85.69;99072.59;2525850;28;20053;-79
2024/02/22 03:51:19;;;;;;;3.60;1.17;;;;;;;8.40;85.68;99070.00;2527326;28;20128;-79
2024/02/22 03:52:32;;;;;;;2.13;1.50;;;;;;;8.41;85.67;99077.75;2529665;28;20041;-79
2024/02/22 03:53:47;;;;;;;1.17;1.05;;;;;;;8.40;85.99;99068.25;2531980;28;20051;-79
2024/02/22 03:55:02;;;;;;;2.38;1.13;;;;;;;8.40;85.82;99070.84;2523579;28;20053;-79
2024/02/22 03:56:16;;;;;;;1.10;1.00;;;;;;;8.41;85.94;99067.34;2528343;28;20124;-79
2024/02/22 03:57:30;;;;;;;2.45;1.85;;;;;;;8.43;85.96;99064.72;2527441;28;20045;-80
2024/02/22 03:58:44;;;;;;;1.55;1.33;;;;;;;8.41;85.74;99079.50;2524718;28;20049;-80
2024/02/22 03:59:57;;;;;;;2.53;1.83;;;;;;;8.42;85.56;99060.44;2526780;28;20465;-80
2024/02/22 04:01:14;;;;;;;1.75;1.58;;;;;;;8.41;85.86;99058.69;2530167;28;20050;-80
2024/02/22 04:02:28;;;;;;;3.13;1.35;;;;;;;8.41;85.86;99074.31;2525041;28;20045;-80
2024/02/22 04:03:42;;;;;;;1.77;1.10;;;;;;;8.39;85.80;99063.97;2532456;28;20057;-79
2024/02/22 04:04:56;;;;;;;1.77;1.30;;;;;;;8.39;85.86;99066.56;2524236;28;20050;-80
2024/02/22 04:06:10;;;;;;;2.25;1.27;;;;;;;8.40;85.81;99060.47;2528102;28;20104;-80
2024/02/22 04:07:24;;;;;;;1.90;1.10;;;;;;;8.40;85.82;99059.63;2528095;28;20046;-80
2024/02/22 04:08:38;;;;;;;0.98;0.98;;;;;;;8.41;85.95;99058.69;2523978;28;20052;-79
2024/02/22 04:09:52;;;;;;;2.65;1.17;;;;;;;8.41;85.95;99063.91;2531655;28;20053;-79
2024/02/22 04:11:06;;;;;;;1.52;1.23;;;;;;;8.41;85.99;99061.31;2524541;28;20076;-79
2024/02/22 04:12:20;;;;;;;1.75;1.02;;;;;;;8.40;86.04;99054.41;2524260;28;20042;-79
2024/02/22 04:13:38;;;;;;;1.30;1.20;;;;;;;8.41;85.93;99062.16;2524015;28;20110;-79
2024/02/22 04:14:51;;;;;;;1.25;1.15;;;;;;;8.41;85.96;99058.69;2532494;28;20546;-79
2024/02/22 04:17:22;;;;;;;2.05;1.23;;;;;;;8.42;86.16;99057.84;2523026;28;20066;-81
2024/02/22 04:18:36;;;;;;;1.35;1.20;;;;;;;8.43;86.11;99054.31;2525769;28;20048;-79
2024/02/22 04:19:50;;;;;;;3.40;1.52;;;;;;;8.43;85.77;99054.31;2525278;28;20050;-80
2024/02/22 04:21:04;;;;;;;1.40;1.10;;;;;;;8.43;85.93;99054.31;2525619;28;20049;-79
2024/02/22 04:22:18;;;;;;;1.27;1.10;;;;;;;8.42;86.01;99055.22;2526578;28;20494;-79
2024/02/22 04:23:32;;;;;;;3.90;1.58;;;;;;;8.41;86.03;99050.91;2526063;28;20450;-79
2024/02/22 04:24:46;;;;;;;1.77;1.15;;;;;;;8.41;85.93;99043.97;2525864;28;20050;-78
2024/02/22 04:26:00;;;;;;;3.08;1.58;;;;;;;8.41;86.07;99050.91;2525679;28;20054;-80
2024/02/22 04:27:14;;;;;;;4.32;1.55;;;;;;;8.41;86.04;99040.50;2525853;28;20120;-80
2024/02/22 04:28:28;;;;;;;2.53;1.70;;;;;;;8.40;86.16;99038.81;2525489;28;20072;-79
2024/02/22 04:29:42;;;;;;;2.00;1.30;;;;;;;8.40;86.00;99038.81;2525785;28;20057;-79
2024/02/22 04:30:56;;;;;;;1.60;1.33;;;;;;;8.39;85.94;99031.84;2525854;28;20049;-79
2024/02/22 04:32:10;;;;;;;2.40;1.75;;;;;;;8.39;86.01;99026.66;2525675;28;20110;-81
2024/02/22 04:33:25;;;;;;;1.60;1.27;;;;;;;8.39;85.95;99031.84;2525465;28;20041;-78
2024/02/22 04:34:39;;;;;;;1.75;1.33;;;;;;;8.38;85.99;99024.97;2525972;28;20046;-80
2024/02/22 04:35:53;;;;;;;4.00;1.83;;;;;;;8.38;86.03;99024.97;2525472;28;20052;-80
2024/02/22 04:37:07;;;;;;;1.95;1.17;;;;;;;8.38;86.21;99020.63;2525684;28;20052;-80
2024/02/22 04:38:22;;;;;;;5.18;1.40;;;;;;;8.39;86.23;99022.38;2525347;28;20046;-81
2024/02/22 04:39:36;;;;;;;2.42;1.50;;;;;;;8.40;86.22;99028.41;2525375;28;20050;-80
2024/02/22 04:40:49;;;;;;;1.52;1.42;;;;;;;8.40;86.46;99025.81;2526238;28;20054;-81
2024/02/22 04:42:04;;;;;;;1.85;1.60;;;;;;;8.39;86.44;99019.78;2525266;28;20414;-79
2024/02/22 04:43:18;;;;;;;2.28;1.60;;;;;;;8.39;86.51;99024.06;2525972;28;20080;-79
2024/02/22 04:44:32;;;;;;;1.67;1.35;;;;;;;8.39;86.36;99011.97;2525320;28;20042;-79
2024/02/22 04:45:45;;;;;;;1.77;1.10;;;;;;;8.38;86.40;99011.97;2526294;28;20046;-79
2024/02/22 04:47:00;;;;;;;2.05;1.55;;;;;;;8.37;86.37;99003.31;2525702;28;20045;-80
2024/02/22 04:48:13;;;;;;;3.80;1.50;;;;;;;8.37;86.63;99016.31;2524654;28;20463;-80
2024/02/22 04:49:29;;;;;;;1.27;1.17;;;;;;;8.37;86.33;99002.47;2524498;28;20050;-79
2024/02/22 04:50:43;;;;;;;2.30;1.88;;;;;;;8.37;86.54;99000.72;2523738;28;20053;-79
2024/02/22 04:51:57;;;;;;;1.13;1.02;;;;;;;8.38;86.55;98994.63;2524488;28;20046;-82
2024/02/22 04:53:12;;;;;;;2.50;1.40;;;;;;;8.39;86.58;98993.78;2523149;28;20057;-78
2024/02/22 04:54:27;;;;;;;3.20;1.40;;;;;;;8.38;86.67;98989.41;2523748;28;20137;-78
2024/02/22 04:55:41;;;;;;;1.52;1.40;;;;;;;8.39;86.54;98985.06;2524081;28;20510;-80
2024/02/22 04:56:55;;;;;;;1.92;1.80;;;;;;;8.39;86.83;98990.25;2524905;28;20085;-80
2024/02/22 04:58:09;;;;;;;3.08;1.67;;;;;;;8.39;86.76;98979.88;2524658;28;20046;-80
2024/02/22 04:59:23;;;;;;;1.75;1.63;;;;;;;8.39;86.67;98972.97;2525411;28;20045;-80
2024/02/22 05:00:38;;;;;;;1.67;1.35;;;;;;;8.40;86.86;98989.41;2525095;28;20045;-80
2024/02/22 05:01:52;;;;;;;2.08;1.50;;;;;;;8.41;86.91;98984.16;2524352;28;20107;-80
2024/02/22 05:03:06;;;;;;;1.73;1.33;;;;;;;8.42;87.02;98978.09;2525087;28;20613;-81
2024/02/22 05:04:20;;;;;;;1.27;1.08;;;;;;;8.42;86.91;98977.25;2525005;28;20041;-79
2024/02/22 05:05:35;;;;;;;1.42;1.25;;;;;;;8.43;86.76;98981.53;2525082;28;20061;-80
2024/02/22 05:06:49;;;;;;;4.65;1.50;;;;;;;8.44;86.81;98984.09;2525136;28;20049;-80
2024/02/22 05:08:03;;;;;;;2.90;1.77;;;;;;;8.46;86.99;98976.25;2525090;28;20046;-78
2024/02/22 05:09:18;;;;;;;2.05;1.95;;;;;;;8.46;86.99;98965.84;2525698;28;20108;-79
2024/02/22 05:10:34;;;;;;;1.63;1.52;;;;;;;8.48;87.05;98966.66;2526003;28;20046;-80
2024/02/22 05:11:48;;;;;;;1.55;1.40;;;;;;;8.50;86.82;98972.69;2525055;28;20061;-80
2024/02/22 05:13:02;;;;;;;8.32;1.65;;;;;;;8.50;86.97;98960.53;2524880;28;20050;-80
2024/02/22 05:14:16;;;;;;;2.17;1.67;;;;;;;8.51;86.87;98961.38;2525197;28;20127;-79
2024/02/22 05:15:30;;;;;;;3.47;1.88;;;;;;;8.51;87.05;98951.81;2524051;28;20053;-79
2024/02/22 05:16:44;;;;;;;2.33;1.73;;;;;;;8.50;86.92;98957.09;2524643;28;20072;-78
2024/02/22 05:17:58;;;;;;;3.13;1.50;;;;;;;8.49;86.86;98970.97;2516368;28;20046;-78
2024/02/22 05:19:12;;;;;;;1.77;1.65;;;;;;;8.49;87.14;98957.97;2524787;28;20386;-80
2024/02/22 05:20:26;;;;;;;1.50;1.38;;;;;;;8.48;87.04;98954.50;2524206;28;20078;-80
2024/02/22 05:21:41;;;;;;;1.52;1.42;;;;;;;8.49;87.08;98958.84;2525477;28;20106;-79
2024/02/22 05:22:55;;;;;;;2.85;1.77;;;;;;;8.50;87.00;98947.53;2524397;28;20080;-79
2024/02/22 05:24:10;;;;;;;1.25;1.15;;;;;;;8.51;87.25;98938.81;2523959;28;20085;-79
2024/02/22 05:25:25;;;;;;;1.55;1.45;;;;;;;8.54;87.33;98944.84;2524197;28;20073;-78
2024/02/22 05:26:39;;;;;;;4.97;1.55;;;;;;;8.54;87.07;98942.25;2524817;28;20061;-80
2024/02/22 05:27:53;;;;;;;2.10;1.27;;;;;;;8.55;87.29;98944.81;2523303;28;20065;-80
2024/02/22 05:29:08;;;;;;;5.85;1.88;;;;;;;8.56;87.22;98946.50;2524066;28;20053;-80
2024/02/22 05:30:22;;;;;;;2.03;1.38;;;;;;;8.56;87.17;98941.31;2524402;28;20060;-79
2024/02/22 05:31:36;;;;;;;1.70;1.60;;;;;;;8.57;87.12;98943.03;2525237;28;20105;-80
2024/02/22 05:32:49;;;;;;;1.40;1.30;;;;;;;8.59;87.12;98935.16;2523946;28;20064;-80
2024/02/22 05:34:04;;;;;;;1.50;1.27;;;;;;;8.59;87.24;98936.00;2524124;28;20054;-80
2024/02/22 05:35:18;;;;;;;1.45;1.35;;;;;;;8.60;87.30;98937.75;2524287;28;20136;-80
2024/02/22 05:36:32;;;;;;;1.77;1.10;;;;;;;8.61;87.28;98929.03;2523334;28;20499;-80
2024/02/22 05:37:47;;;;;;;1.88;1.42;;;;;;;8.63;87.21;98924.66;2524031;28;20061;-79
2024/02/22 05:39:03;;;;;;;2.08;1.30;;;;;;;8.65;87.30;98924.63;2523886;28;20132;-81
2024/02/22 05:40:16;;;;;;;1.40;1.23;;;;;;;8.65;87.12;98919.41;2524032;28;20062;-79
2024/02/22 05:41:31;;;;;;;1.83;1.63;;;;;;;8.67;87.00;98915.00;2523693;28;20049;-77
2024/02/22 05:42:44;;;;;;;2.67;1.77;;;;;;;8.67;87.09;98917.59;2524345;28;20422;-79
2024/02/22 05:43:58;;;;;;;2.00;1.38;;;;;;;8.68;87.12;98916.72;2523151;28;20046;-79
2024/02/22 05:45:12;;;;;;;1.15;1.08;;;;;;;8.67;87.22;98913.28;2525008;28;20046;-81
2024/02/22 05:46:26;;;;;;;1.17;1.08;;;;;;;8.68;87.04;98909.75;2524453;28;20132;-79
2024/02/22 05:47:40;;;;;;;1.65;1.40;;;;;;;8.69;87.26;98908.00;2524967;28;20415;-78
2024/02/22 05:48:54;;;;;;;3.05;1.30;;;;;;;8.70;87.21;98907.13;2524720;28;20049;-79
2024/02/22 05:50:09;;;;;;;2.50;1.90;;;;;;;8.69;87.23;98911.44;2527015;28;20050;-78
2024/02/22 05:51:23;;;;;;;2.47;1.30;;;;;;;8.69;87.28;98901.06;2529377;28;20064;-79
2024/02/22 05:52:37;;;;;;;2.40;1.40;;;;;;;8.72;87.09;98907.91;2528996;28;20061;-79
2024/02/22 05:53:53;;;;;;;2.17;1.40;;;;;;;8.73;87.21;98900.06;2531364;28;20114;-79
2024/02/22 05:55:08;;;;;;;2.35;1.40;;;;;;;8.74;87.21;98904.38;2530204;28;20046;-80